Time;durP1;ratioP1;P1;durP2;ratioP2;P2;SDS_P1;SDS_P2;PMS_P1;PMS_P2;Temp;Humidity;BMP_temperature;BMP_pressure;BME280_temperature;BME280_humidity;BME280_pressure;Samples;Min_cycle;Max_cycle;Signal;HPM_P1;HPM_P2
2021/04/16 00:00:21;;;;;;;7.47;5.63;;;1.00;99.90;;;;;;4977109;28;20468;-87
2021/04/16 00:02:47;;;;;;;5.90;5.07;;;0.90;99.90;;;;;;4974527;28;20459;-87
2021/04/16 00:05:15;;;;;;;5.50;5.00;;;0.90;99.90;;;;;;4972832;28;21002;-87
2021/04/16 00:07:41;;;;;;;6.87;5.00;;;0.80;99.90;;;;;;4976774;28;20206;-84
2021/04/16 00:10:10;;;;;;;5.80;4.97;;;0.80;99.90;;;;;;4954599;28;20584;-83
2021/04/16 00:12:35;;;;;;;6.13;5.30;;;0.80;99.90;;;;;;4953878;28;20632;-84
2021/04/16 00:15:03;;;;;;;6.30;4.60;;;0.80;99.90;;;;;;4977289;28;20452;-84
2021/04/16 00:17:29;;;;;;;6.50;5.00;;;0.60;99.90;;;;;;4978530;28;20706;-85
2021/04/16 00:19:55;;;;;;;4.60;4.20;;;0.60;99.90;;;;;;4971827;28;20473;-84
2021/04/16 00:22:24;;;;;;;5.63;5.13;;;0.50;99.90;;;;;;4969307;28;20194;-84
2021/04/16 00:24:50;;;;;;;7.40;4.87;;;0.40;99.90;;;;;;4964587;28;20221;-85
2021/04/16 00:27:15;;;;;;;5.40;4.23;;;0.50;99.90;;;;;;4940999;28;20468;-84
2021/04/16 00:29:44;;;;;;;6.40;4.57;;;0.50;99.90;;;;;;4976058;28;20496;-85
2021/04/16 00:32:10;;;;;;;4.70;4.20;;;0.50;99.90;;;;;;4959313;28;20297;-85
2021/04/16 00:34:47;;;;;;;5.00;4.50;;;0.40;99.90;;;;;;4953123;28;20473;-85
2021/04/16 00:37:13;;;;;;;7.07;4.23;;;0.30;99.90;;;;;;4969796;28;20201;-85
2021/04/16 00:39:41;;;;;;;4.40;4.00;;;0.30;99.90;;;;;;4958589;28;21000;-85
2021/04/16 00:42:10;;;;;;;5.37;4.57;;;0.20;99.90;;;;;;4972596;28;20194;-85
2021/04/16 00:44:41;;;;;;;5.10;4.00;;;0.20;99.90;;;;;;4975446;28;20480;-85
2021/04/16 00:47:28;;;;;;;5.30;4.32;;;0.10;99.90;;;;;;4958051;28;20462;-85
2021/04/16 00:50:03;;;;;;;6.43;4.40;;;0.20;99.90;;;;;;4956946;28;20220;-85
2021/04/16 00:52:31;;;;;;;4.53;3.37;;;0.20;99.90;;;;;;4969245;28;20469;-85
2021/04/16 00:54:57;;;;;;;5.00;3.20;;;0.20;99.90;;;;;;4975094;28;20436;-85
2021/04/16 00:57:23;;;;;;;4.40;3.90;;;0.30;99.90;;;;;;4972674;28;20460;-85
2021/04/16 00:59:57;;;;;;;6.10;3.70;;;0.40;99.90;;;;;;4973149;28;20188;-85
2021/04/16 01:02:25;;;;;;;4.83;4.20;;;0.30;99.90;;;;;;4975341;28;20956;-85
2021/04/16 01:04:51;;;;;;;4.43;4.03;;;0.30;99.90;;;;;;4970908;28;20472;-83
2021/04/16 01:07:19;;;;;;;4.50;3.63;;;0.30;99.90;;;;;;4953118;28;21029;-84
2021/04/16 01:09:47;;;;;;;4.60;4.10;;;0.20;99.90;;;;;;4971800;28;20467;-85
2021/04/16 01:12:14;;;;;;;4.30;3.83;;;0.30;99.90;;;;;;4948285;28;20442;-84
2021/04/16 01:14:42;;;;;;;3.93;3.07;;;0.30;99.90;;;;;;4971410;28;20985;-85
2021/04/16 01:17:10;;;;;;;5.87;4.37;;;0.40;99.90;;;;;;4949687;28;20471;-84
2021/04/16 01:20:17;;;;;;;4.57;3.30;;;0.40;99.90;;;;;;4969569;28;20479;-85
2021/04/16 01:22:58;;;;;;;5.83;4.13;;;0.40;99.90;;;;;;4914533;29;20451;-85
2021/04/16 01:25:25;;;;;;;3.90;3.40;;;0.50;99.90;;;;;;4944724;28;20488;-86
2021/04/16 01:27:51;;;;;;;5.33;3.73;;;0.50;99.90;;;;;;4949394;28;20469;-85
2021/04/16 01:30:22;;;;;;;5.40;4.10;;;0.40;99.90;;;;;;4937010;28;20449;-85
2021/04/16 01:32:47;;;;;;;6.00;3.67;;;0.30;99.90;;;;;;4968447;28;20193;-85
2021/04/16 01:35:17;;;;;;;4.07;3.67;;;0.20;99.90;;;;;;4964778;28;20449;-85
2021/04/16 01:37:43;;;;;;;3.47;3.17;;;0.30;99.90;;;;;;4966492;28;20183;-85
2021/04/16 01:40:14;;;;;;;3.60;3.30;;;0.20;99.90;;;;;;4966286;28;20468;-85
2021/04/16 01:42:43;;;;;;;4.23;3.60;;;0.20;99.90;;;;;;4964222;28;20591;-85
2021/04/16 01:45:17;;;;;;;4.63;3.50;;;0.20;99.90;;;;;;4958481;28;20473;-86
2021/04/16 01:47:43;;;;;;;3.90;3.60;;;0.20;99.90;;;;;;4959615;28;21199;-85
2021/04/16 01:50:09;;;;;;;5.17;4.30;;;0.10;99.90;;;;;;4954187;28;21363;-84
2021/04/16 01:52:35;;;;;;;3.87;3.57;;;0.10;99.90;;;;;;4943024;28;20189;-84
2021/04/16 01:55:03;;;;;;;4.03;3.40;;;0.00;99.90;;;;;;4939558;28;20450;-84
2021/04/16 01:57:36;;;;;;;3.63;3.33;;;0.00;99.90;;;;;;4944349;28;20442;-86
2021/04/16 02:00:08;;;;;;;4.33;3.57;;;0.00;99.90;;;;;;4951935;28;20456;-86
2021/04/16 02:02:46;;;;;;;4.27;3.07;;;0.00;99.90;;;;;;4965195;28;20532;-85
2021/04/16 02:05:13;;;;;;;6.00;4.40;;;0.00;99.90;;;;;;4960618;28;20830;-83
2021/04/16 02:07:44;;;;;;;8.90;5.40;;;0.00;99.90;;;;;;4978054;28;20449;-84
2021/04/16 02:10:11;;;;;;;5.53;4.70;;;-0.10;99.90;;;;;;4948747;28;20456;-84
2021/04/16 02:12:37;;;;;;;4.30;3.50;;;-0.20;99.90;;;;;;4966590;28;21555;-84
2021/04/16 02:15:04;;;;;;;3.53;3.00;;;-0.30;99.90;;;;;;4965338;28;20465;-84
2021/04/16 02:17:30;;;;;;;3.40;3.10;;;-0.30;99.90;;;;;;4969732;28;20464;-84
2021/04/16 02:19:58;;;;;;;3.90;3.60;;;-0.30;99.90;;;;;;4949499;28;21493;-84
2021/04/16 02:22:26;;;;;;;3.93;3.57;;;-0.30;99.90;;;;;;4960294;28;20440;-85
2021/04/16 02:24:53;;;;;;;4.10;3.40;;;-0.20;99.90;;;;;;4961615;28;20489;-84
2021/04/16 02:27:21;;;;;;;3.53;3.23;;;-0.10;99.90;;;;;;4948999;28;20476;-84
2021/04/16 02:29:47;;;;;;;3.50;3.20;;;-0.20;99.90;;;;;;4955859;28;20916;-84
2021/04/16 02:32:21;;;;;;;3.43;3.13;;;-0.20;99.90;;;;;;4947940;28;20440;-85
2021/04/16 02:34:48;;;;;;;3.30;3.00;;;-0.10;99.90;;;;;;4965914;28;20435;-85
2021/04/16 02:37:16;;;;;;;3.40;2.90;;;-0.20;99.90;;;;;;4950448;28;21781;-84
2021/04/16 02:39:42;;;;;;;3.93;3.00;;;-0.10;99.90;;;;;;4938607;28;20448;-84
2021/04/16 02:42:11;;;;;;;6.40;3.70;;;-0.20;99.90;;;;;;4963750;28;20448;-84
2021/04/16 02:44:37;;;;;;;3.57;3.13;;;-0.20;99.90;;;;;;4951743;28;20461;-84
2021/04/16 02:47:05;;;;;;;4.70;3.67;;;-0.20;99.90;;;;;;4954201;28;20450;-84
2021/04/16 02:49:31;;;;;;;3.73;2.90;;;-0.30;99.90;;;;;;4968628;28;22743;-85
2021/04/16 02:51:57;;;;;;;5.43;3.87;;;-0.30;99.90;;;;;;4954695;28;20456;-85
2021/04/16 02:54:22;;;;;;;5.50;3.70;;;-0.40;99.90;;;;;;4954865;28;20439;-85
2021/04/16 02:56:49;;;;;;;4.03;3.63;;;-0.50;99.90;;;;;;4967836;28;20221;-85
2021/04/16 02:59:19;;;;;;;4.00;3.53;;;-0.60;99.90;;;;;;4931850;28;20540;-84
2021/04/16 03:01:50;;;;;;;4.65;3.60;;;-0.60;99.90;;;;;;4955440;28;20189;-85
2021/04/16 03:04:24;;;;;;;4.80;4.25;;;-0.60;99.90;;;;;;4971212;28;20202;-84
2021/04/16 03:06:50;;;;;;;3.87;3.57;;;-0.70;99.90;;;;;;4954839;28;20225;-85
2021/04/16 03:09:16;;;;;;;5.23;3.50;;;-0.60;99.90;;;;;;4968053;28;20575;-86
2021/04/16 03:11:41;;;;;;;5.53;3.70;;;-0.50;99.90;;;;;;4970912;28;20723;-85
2021/04/16 03:14:07;;;;;;;4.00;3.60;;;-0.60;99.90;;;;;;4970272;28;20455;-85
2021/04/16 03:16:33;;;;;;;3.37;3.13;;;-0.70;99.90;;;;;;4966429;28;20805;-85
2021/04/16 03:19:02;;;;;;;5.05;4.10;;;-0.60;99.90;;;;;;4953510;28;20263;-85
2021/04/16 03:21:29;;;;;;;4.10;3.50;;;-0.60;99.90;;;;;;4965536;28;20190;-86
2021/04/16 03:23:55;;;;;;;3.80;3.50;;;-0.50;99.90;;;;;;4971306;28;20447;-86
2021/04/16 03:26:21;;;;;;;4.70;4.05;;;-0.50;99.90;;;;;;4968216;28;20213;-86
2021/04/16 03:28:54;;;;;;;5.78;4.32;;;-0.50;99.90;;;;;;4944439;28;20186;-86
2021/04/16 03:31:26;;;;;;;7.20;5.75;;;-0.60;99.90;;;;;;4966680;28;20201;-86
2021/04/16 03:36:41;;;;;;;5.45;4.00;;;-0.70;99.90;;;;;;4967250;28;20275;-86
2021/04/16 03:39:07;;;;;;;4.95;4.45;;;-0.70;99.90;;;;;;4955565;28;20529;-85
2021/04/16 03:41:32;;;;;;;5.03;4.53;;;-0.80;99.90;;;;;;4966548;28;20193;-85
2021/04/16 03:43:58;;;;;;;7.20;4.13;;;-0.80;99.90;;;;;;4954265;28;20531;-85
2021/04/16 03:46:26;;;;;;;4.40;4.00;;;-0.80;99.90;;;;;;4950216;28;20727;-85
2021/04/16 03:48:54;;;;;;;4.97;4.00;;;-0.70;99.90;;;;;;4974513;28;20206;-85
2021/04/16 03:51:20;;;;;;;4.90;4.10;;;-0.80;99.90;;;;;;4953799;28;20193;-85
2021/04/16 03:53:45;;;;;;;4.67;4.27;;;-0.80;99.90;;;;;;4955986;28;20544;-85
2021/04/16 03:56:13;;;;;;;5.57;4.73;;;-0.80;99.90;;;;;;4971654;28;20186;-83
2021/04/16 03:58:40;;;;;;;4.45;4.05;;;-0.70;99.90;;;;;;4957116;28;20536;-84
2021/04/16 04:01:08;;;;;;;5.50;3.83;;;-0.50;99.90;;;;;;4958675;28;20194;-84
2021/04/16 04:03:34;;;;;;;4.80;3.97;;;-0.50;99.90;;;;;;4936685;28;20653;-84
2021/04/16 04:06:00;;;;;;;5.80;4.87;;;-0.50;99.90;;;;;;4971378;28;20225;-84
2021/04/16 04:08:26;;;;;;;5.60;4.65;;;-0.50;99.90;;;;;;4957837;28;20807;-86
2021/04/16 04:10:51;;;;;;;5.60;4.60;;;-0.50;99.90;;;;;;4951393;28;20202;-86
2021/04/16 04:13:18;;;;;;;5.83;4.73;;;-0.60;99.90;;;;;;4956697;28;20608;-86
2021/04/16 04:15:43;;;;;;;4.70;4.20;;;-0.50;99.90;;;;;;4967486;28;20206;-85
2021/04/16 04:18:10;;;;;;;4.60;4.20;;;-0.60;99.90;;;;;;4971618;28;20206;-86
2021/04/16 04:20:38;;;;;;;6.57;3.80;;;-0.60;99.90;;;;;;4966314;28;20612;-85
2021/04/16 04:23:05;;;;;;;4.50;4.07;;;-0.70;99.90;;;;;;4932980;28;20761;-84
2021/04/16 04:25:32;;;;;;;4.18;3.50;;;-0.60;99.90;;;;;;4968549;28;20313;-84
2021/04/16 04:28:00;;;;;;;4.50;4.10;;;-0.60;99.90;;;;;;4952842;28;20276;-85
2021/04/16 04:30:29;;;;;;;5.35;4.25;;;-0.70;99.90;;;;;;4953547;28;20206;-84
2021/04/16 04:32:55;;;;;;;5.38;4.35;;;-0.80;99.90;;;;;;4973558;28;20212;-85
2021/04/16 04:35:22;;;;;;;6.70;4.70;;;-0.90;99.90;;;;;;4947659;28;20552;-86
2021/04/16 04:37:48;;;;;;;6.60;4.85;;;-1.00;99.90;;;;;;4961301;28;20437;-86
2021/04/16 04:40:15;;;;;;;6.10;4.90;;;-1.00;99.90;;;;;;4953715;28;20213;-86
2021/04/16 04:42:40;;;;;;;6.00;5.40;;;-0.80;99.90;;;;;;4954799;28;20194;-86
2021/04/16 04:45:07;;;;;;;5.23;4.73;;;-0.80;99.90;;;;;;4959138;28;20628;-86
2021/04/16 04:47:33;;;;;;;6.75;5.35;;;-0.70;99.90;;;;;;4948996;28;20224;-86
2021/04/16 04:49:59;;;;;;;10.70;6.70;;;-0.70;99.90;;;;;;4945043;28;20184;-86
2021/04/16 04:52:28;;;;;;;8.00;5.30;;;-0.70;99.90;;;;;;4968140;28;22648;-85
2021/04/16 04:54:56;;;;;;;7.95;4.82;;;-0.60;99.90;;;;;;4968759;28;20445;-85
2021/04/16 04:57:31;;;;;;;7.00;5.70;;;-0.60;99.90;;;;;;4965189;28;20244;-86
2021/04/16 04:59:58;;;;;;;8.88;5.25;;;-0.50;99.90;;;;;;4954275;28;20585;-87
2021/04/16 05:02:24;;;;;;;7.00;4.85;;;-0.40;99.90;;;;;;4965229;28;20185;-86
2021/04/16 05:04:50;;;;;;;5.13;4.72;;;-0.30;99.90;;;;;;4954197;28;20201;-86
2021/04/16 05:07:17;;;;;;;6.93;5.22;;;-0.20;99.90;;;;;;4962431;28;20190;-86
2021/04/16 05:09:42;;;;;;;6.57;4.90;;;-0.10;99.90;;;;;;4953960;28;20196;-86
2021/04/16 05:12:11;;;;;;;5.50;4.70;;;-0.10;99.90;;;;;;4963950;28;20441;-86
2021/04/16 05:14:37;;;;;;;5.43;4.88;;;0.00;99.90;;;;;;4977483;28;20213;-86
2021/04/16 05:17:04;;;;;;;4.93;4.40;;;0.00;99.90;;;;;;4964253;28;20204;-86
2021/04/16 05:19:38;;;;;;;6.43;5.27;;;0.10;99.90;;;;;;4948356;28;20456;-86
2021/04/16 05:22:05;;;;;;;4.87;4.17;;;0.20;99.90;;;;;;4955451;28;20548;-86
2021/04/16 05:24:35;;;;;;;4.70;4.27;;;0.30;99.90;;;;;;4976836;28;20800;-86
2021/04/16 05:27:12;;;;;;;5.17;4.67;;;0.30;99.90;;;;;;4975791;28;20563;-86
2021/04/16 05:29:40;;;;;;;4.50;4.10;;;0.40;99.90;;;;;;4971054;28;20472;-87
2021/04/16 05:32:07;;;;;;;4.93;4.43;;;0.40;99.90;;;;;;4973723;28;20465;-87
2021/04/16 05:34:36;;;;;;;4.37;3.97;;;0.30;99.90;;;;;;4965410;28;20535;-87
2021/04/16 05:37:02;;;;;;;7.93;4.10;;;0.40;99.90;;;;;;4956125;28;20453;-86
2021/04/16 05:39:28;;;;;;;5.07;4.57;;;0.60;99.90;;;;;;4972339;28;20457;-87
2021/04/16 05:41:54;;;;;;;5.30;4.20;;;0.70;99.90;;;;;;4959661;28;20452;-86
2021/04/16 05:44:20;;;;;;;7.07;4.87;;;0.90;99.90;;;;;;4958431;28;20474;-86
2021/04/16 05:46:45;;;;;;;8.37;5.00;;;0.90;99.90;;;;;;4975611;28;20221;-85
2021/04/16 05:49:11;;;;;;;6.03;5.43;;;0.90;99.90;;;;;;4960991;28;20185;-86
2021/04/16 05:51:39;;;;;;;6.33;5.67;;;1.00;99.90;;;;;;4962773;28;20478;-86
2021/04/16 05:54:06;;;;;;;5.57;4.83;;;1.10;99.90;;;;;;4977430;28;20537;-86
2021/04/16 05:56:32;;;;;;;7.07;5.70;;;1.20;99.90;;;;;;4979167;28;20488;-86
2021/04/16 05:58:59;;;;;;;7.27;6.07;;;1.20;99.90;;;;;;4973891;28;20453;-86
2021/04/16 06:01:25;;;;;;;6.10;5.50;;;1.30;99.90;;;;;;4943852;28;21006;-86
2021/04/16 06:03:53;;;;;;;8.80;5.93;;;1.20;99.90;;;;;;4955733;28;20434;-86
2021/04/16 06:06:25;;;;;;;6.47;5.80;;;1.20;99.90;;;;;;4950300;28;20234;-86
2021/04/16 06:08:50;;;;;;;8.87;6.77;;;1.30;99.90;;;;;;4976241;28;20441;-86
2021/04/16 06:11:17;;;;;;;7.47;6.67;;;1.40;99.90;;;;;;4976924;28;20445;-86
2021/04/16 06:16:44;;;;;;;8.63;6.97;;;1.90;99.90;;;;;;4975284;28;20879;-85
2021/04/16 06:19:09;;;;;;;6.20;5.60;;;2.10;99.90;;;;;;4954372;28;20460;-85
2021/04/16 06:21:35;;;;;;;6.03;5.43;;;2.30;99.90;;;;;;4976124;28;21027;-86
2021/04/16 06:24:03;;;;;;;6.97;5.80;;;2.50;99.90;;;;;;4956461;28;20200;-86
2021/04/16 06:26:28;;;;;;;7.47;5.00;;;2.70;99.90;;;;;;4974889;28;20702;-85
2021/04/16 06:28:54;;;;;;;5.20;4.80;;;2.90;99.90;;;;;;4957482;28;20484;-85
2021/04/16 06:31:20;;;;;;;4.87;4.37;;;3.10;99.90;;;;;;4975920;28;20198;-86
2021/04/16 06:33:46;;;;;;;6.10;5.00;;;3.10;99.90;;;;;;4954033;28;20516;-84
2021/04/16 06:36:16;;;;;;;5.17;4.67;;;3.00;99.90;;;;;;4958891;28;20252;-85
2021/04/16 06:38:45;;;;;;;4.50;4.10;;;3.10;99.90;;;;;;4960595;28;20205;-85
2021/04/16 06:41:19;;;;;;;6.10;4.60;;;3.20;99.90;;;;;;4960076;28;20792;-85
2021/04/16 06:43:48;;;;;;;5.73;5.03;;;3.40;99.90;;;;;;4972043;28;20589;-85
2021/04/16 06:46:45;;;;;;;5.47;4.40;;;3.50;99.90;;;;;;4974543;28;20500;-87
2021/04/16 06:49:23;;;;;;;6.03;5.10;;;3.50;99.90;;;;;;4939688;28;20532;-85
2021/04/16 06:52:25;;;;;;;5.20;4.70;;;3.60;99.90;;;;;;4973852;28;20476;-86
2021/04/16 06:55:02;;;;;;;5.27;4.60;;;3.80;99.90;;;;;;4970897;28;20555;-85
2021/04/16 06:57:40;;;;;;;5.50;3.83;;;3.70;99.90;;;;;;4973722;28;20448;-85
2021/04/16 07:00:13;;;;;;;4.30;3.90;;;3.70;99.90;;;;;;4970148;28;20492;-85
2021/04/16 07:02:54;;;;;;;4.30;3.90;;;3.80;99.90;;;;;;4974910;28;20992;-86
2021/04/16 07:06:05;;;;;;;6.40;4.50;;;3.80;99.90;;;;;;4955529;28;20481;-85
2021/04/16 07:08:33;;;;;;;4.70;4.37;;;3.70;99.90;;;;;;4926020;28;20508;-85
2021/04/16 07:11:03;;;;;;;5.73;4.50;;;3.90;99.90;;;;;;4955615;28;21040;-85
2021/04/16 07:13:34;;;;;;;4.50;4.10;;;3.90;99.90;;;;;;4947964;28;20494;-85
2021/04/16 07:16:00;;;;;;;5.43;4.53;;;3.90;99.90;;;;;;4965198;28;20498;-86
2021/04/16 07:18:38;;;;;;;5.93;4.80;;;4.00;99.90;;;;;;4966819;28;20445;-85
2021/04/16 07:21:08;;;;;;;7.80;4.60;;;4.10;99.90;;;;;;4975049;28;21048;-86
2021/04/16 07:23:47;;;;;;;4.30;3.90;;;4.10;99.90;;;;;;4945137;28;20533;-84
2021/04/16 07:26:50;;;;;;;4.40;4.00;;;4.30;99.90;;;;;;4957189;28;20563;-86
2021/04/16 07:29:45;;;;;;;21.83;6.23;;;4.10;99.90;;;;;;4959974;28;20467;-87
2021/04/16 07:32:25;;;;;;;6.63;5.20;;;4.20;99.90;;;;;;4956113;28;20508;-84
2021/04/16 07:34:54;;;;;;;6.67;5.27;;;4.40;99.90;;;;;;4976043;28;20563;-87
2021/04/16 07:37:42;;;;;;;4.83;4.43;;;4.80;99.90;;;;;;4970516;28;20453;-84
2021/04/16 07:40:22;;;;;;;5.70;4.90;;;4.90;99.90;;;;;;4957841;28;20461;-86
2021/04/16 07:42:51;;;;;;;5.10;4.70;;;5.10;99.90;;;;;;4957886;28;20732;-84
2021/04/16 07:45:22;;;;;;;8.73;5.50;;;5.30;99.90;;;;;;4958592;28;20482;-87
2021/04/16 07:47:50;;;;;;;6.20;4.93;;;5.30;99.90;;;;;;4970520;28;20446;-89
2021/04/16 07:50:25;;;;;;;5.37;4.87;;;5.20;99.90;;;;;;4975322;28;20489;-86
2021/04/16 07:52:51;;;;;;;6.30;5.80;;;4.90;99.90;;;;;;4958534;28;20674;-85
2021/04/16 07:55:32;;;;;;;6.33;5.73;;;4.90;99.90;;;;;;4973385;28;21014;-85
2021/04/16 07:58:05;;;;;;;6.70;5.47;;;5.20;99.90;;;;;;4974062;28;20194;-87
2021/04/16 08:00:42;;;;;;;5.13;4.73;;;5.30;99.90;;;;;;4976839;28;20444;-89
2021/04/16 08:03:20;;;;;;;6.23;5.57;;;5.60;99.90;;;;;;4964246;28;20458;-86
2021/04/16 08:05:49;;;;;;;5.10;4.60;;;6.00;99.90;;;;;;4961957;28;20480;-86
2021/04/16 08:08:44;;;;;;;5.40;5.00;;;6.20;99.90;;;;;;4969217;28;20448;-85
2021/04/16 08:11:15;;;;;;;5.37;4.97;;;5.90;99.90;;;;;;4971934;28;20862;-84
2021/04/16 08:13:44;;;;;;;5.43;5.03;;;5.80;99.90;;;;;;4959692;28;20453;-86
2021/04/16 08:16:22;;;;;;;5.70;5.13;;;5.80;99.90;;;;;;4954473;28;20465;-87
2021/04/16 08:19:04;;;;;;;5.60;5.10;;;5.90;99.90;;;;;;4978724;28;20507;-86
2021/04/16 08:21:38;;;;;;;5.03;4.53;;;6.10;99.90;;;;;;4956918;28;20469;-86
2021/04/16 08:24:41;;;;;;;5.10;4.70;;;6.30;99.90;;;;;;4958371;28;20552;-88
2021/04/16 08:27:31;;;;;;;5.13;4.73;;;6.40;99.90;;;;;;4991739;28;20986;-85
2021/04/16 08:30:39;;;;;;;4.93;4.53;;;6.40;99.90;;;;;;4965841;28;20568;-86
2021/04/16 08:33:07;;;;;;;4.93;4.50;;;6.80;99.90;;;;;;4934979;28;20551;-86
2021/04/16 08:35:49;;;;;;;5.87;4.30;;;6.70;99.90;;;;;;4974509;28;20496;-88
2021/04/16 08:38:19;;;;;;;14.83;6.10;;;6.10;99.90;;;;;;4974768;28;20449;-85
2021/04/16 08:40:58;;;;;;;7.20;4.97;;;6.30;99.90;;;;;;4974743;28;20945;-85
2021/04/16 08:43:43;;;;;;;16.77;6.50;;;6.40;99.90;;;;;;4976904;28;20456;-87
2021/04/16 08:46:23;;;;;;;5.27;4.80;;;6.20;99.90;;;;;;4958075;28;20494;-84
2021/04/16 08:49:10;;;;;;;5.30;4.50;;;6.20;99.90;;;;;;4960344;28;20508;-85
2021/04/16 08:51:40;;;;;;;6.03;5.40;;;6.20;99.90;;;;;;4953121;28;20544;-84
2021/04/16 08:54:15;;;;;;;5.90;5.40;;;6.60;99.90;;;;;;4975833;28;20466;-86
2021/04/16 08:56:51;;;;;;;15.13;6.43;;;6.70;99.90;;;;;;4948095;28;20485;-86
2021/04/16 08:59:17;;;;;;;14.03;6.60;;;6.80;99.90;;;;;;4978221;28;20613;-86
2021/04/16 09:02:16;;;;;;;18.97;8.50;;;7.00;99.90;;;;;;4974758;28;20480;-87
2021/04/16 09:05:03;;;;;;;29.30;9.10;;;7.10;99.90;;;;;;4978302;28;20432;-87
2021/04/16 09:07:39;;;;;;;51.73;11.20;;;7.20;99.90;;;;;;4986540;28;20473;-87
2021/04/16 09:10:26;;;;;;;38.07;34.03;;;7.40;99.90;;;;;;4961180;28;20483;-87
2021/04/16 09:12:55;;;;;;;18.33;6.40;;;7.50;99.90;;;;;;4957771;28;20963;-87
2021/04/16 09:15:49;;;;;;;22.37;6.00;;;7.50;99.90;;;;;;4971781;28;20536;-88
2021/04/16 09:18:36;;;;;;;20.10;6.00;;;8.20;99.20;;;;;;4970841;28;20446;-87
2021/04/16 09:21:16;;;;;;;12.10;4.80;;;8.60;99.20;;;;;;4952238;28;20459;-84
2021/04/16 09:26:46;;;;;;;22.03;8.03;;;8.60;99.20;;;;;;4976434;28;20483;-84
2021/04/16 09:29:29;;;;;;;17.50;8.17;;;8.70;97.10;;;;;;4973261;28;20534;-84
2021/04/16 09:32:01;;;;;;;25.00;6.20;;;8.80;98.60;;;;;;4976135;28;20833;-83
2021/04/16 09:34:43;;;;;;;4.00;3.70;;;9.70;97.20;;;;;;4974315;28;20495;-83
2021/04/16 09:37:34;;;;;;;9.77;5.20;;;10.40;93.70;;;;;;4978548;28;20440;-88
2021/04/16 09:40:30;;;;;;;7.73;5.20;;;9.90;93.60;;;;;;4977220;28;21030;-89
2021/04/16 09:43:09;;;;;;;4.80;4.40;;;9.70;94.60;;;;;;4982077;28;20463;-88
2021/04/16 09:45:38;;;;;;;4.53;4.23;;;9.70;94.10;;;;;;4965116;28;20484;-82
2021/04/16 09:48:44;;;;;;;4.47;4.17;;;9.20;93.50;;;;;;4954956;28;20528;-82
2021/04/16 09:51:10;;;;;;;4.60;4.30;;;8.40;95.00;;;;;;4956822;28;20438;-82
2021/04/16 09:53:37;;;;;;;6.57;4.87;;;8.00;96.10;;;;;;4979211;28;20983;-83
2021/04/16 09:56:06;;;;;;;5.43;5.03;;;8.00;96.50;;;;;;4961449;28;20244;-82
2021/04/16 10:00:57;;;;;;;5.17;4.77;;;8.30;96.00;;;;;;4976215;28;20460;-82
2021/04/16 10:03:32;;;;;;;5.20;4.80;;;8.60;95.70;;;;;;4972388;28;20190;-81
2021/04/16 10:05:58;;;;;;;5.73;5.10;;;8.00;95.10;;;;;;4976462;28;21138;-82
2021/04/16 10:08:30;;;;;;;4.93;4.47;;;7.90;97.60;;;;;;4977470;28;20919;-82
2021/04/16 10:11:05;;;;;;;7.23;4.80;;;8.30;96.20;;;;;;4973981;28;20906;-82
2021/04/16 10:13:39;;;;;;;5.17;4.77;;;8.60;95.40;;;;;;4958641;28;20446;-82
2021/04/16 10:16:21;;;;;;;5.67;5.17;;;8.10;95.60;;;;;;4972371;28;20464;-81
2021/04/16 10:18:47;;;;;;;10.00;4.90;;;8.80;96.80;;;;;;4953623;28;20445;-81
2021/04/16 10:21:17;;;;;;;13.90;5.47;;;9.40;94.80;;;;;;4970294;28;20446;-80
2021/04/16 10:23:50;;;;;;;6.97;4.20;;;9.70;93.00;;;;;;4961134;28;20532;-82
2021/04/16 12:40:26;;;;;;;5.13;4.73;;;7.90;94.70;;;;;;4952631;28;21036;-81
2021/04/16 12:42:55;;;;;;;5.50;5.10;;;7.90;94.00;;;;;;4972681;28;20534;-82
2021/04/16 12:45:21;;;;;;;6.17;5.70;;;7.90;94.00;;;;;;4955093;28;20475;-82
2021/04/16 12:47:47;;;;;;;8.23;7.53;;;8.00;94.50;;;;;;4953531;28;20455;-81
2021/04/16 12:50:17;;;;;;;5.50;5.00;;;7.80;94.70;;;;;;4966938;28;20444;-81
2021/04/16 12:52:42;;;;;;;5.23;4.83;;;7.80;94.10;;;;;;4947860;28;20366;-81
2021/04/16 12:55:09;;;;;;;5.50;5.00;;;7.60;94.40;;;;;;4951332;28;21040;-81
2021/04/16 12:57:39;;;;;;;5.47;5.00;;;7.60;94.50;;;;;;4951300;28;20538;-80
2021/04/16 13:00:07;;;;;;;5.23;4.83;;;7.40;95.30;;;;;;4967491;28;20449;-82
2021/04/16 13:02:32;;;;;;;5.57;5.07;;;7.40;95.40;;;;;;4967070;28;20468;-83
2021/04/16 13:05:02;;;;;;;5.00;4.60;;;7.30;94.90;;;;;;4967162;28;20787;-82
2021/04/16 13:07:27;;;;;;;6.13;5.53;;;6.90;95.70;;;;;;4966108;28;20203;-82
2021/04/16 13:09:53;;;;;;;5.40;4.93;;;6.90;96.10;;;;;;4962330;28;20552;-82
2021/04/16 13:12:20;;;;;;;5.13;4.73;;;6.80;96.70;;;;;;4953593;28;20786;-82
2021/04/16 13:14:46;;;;;;;5.67;4.90;;;6.90;96.60;;;;;;4955801;28;20461;-82
2021/04/16 13:17:17;;;;;;;4.57;3.93;;;6.90;96.20;;;;;;4945758;28;20452;-82
2021/04/16 13:19:44;;;;;;;5.30;4.87;;;7.00;95.60;;;;;;4942854;28;20456;-82
2021/04/16 13:22:13;;;;;;;5.43;4.80;;;7.00;95.90;;;;;;4950305;28;20447;-83
2021/04/16 13:24:39;;;;;;;4.60;4.30;;;6.80;96.00;;;;;;4951967;28;21655;-82
2021/04/16 13:27:08;;;;;;;4.90;4.50;;;6.70;95.90;;;;;;4946447;28;20490;-83
2021/04/16 13:29:34;;;;;;;5.67;5.17;;;6.70;96.70;;;;;;4945735;28;20458;-82
2021/04/16 13:32:01;;;;;;;4.63;4.30;;;6.80;96.20;;;;;;4960301;28;20466;-82
2021/04/16 13:34:28;;;;;;;5.77;5.17;;;7.00;95.70;;;;;;4953353;28;20455;-84
2021/04/16 13:36:54;;;;;;;5.13;4.73;;;7.00;95.70;;;;;;4966328;28;20458;-83
2021/04/16 13:39:21;;;;;;;4.47;4.17;;;7.00;96.50;;;;;;4951264;28;20446;-84
2021/04/16 13:41:46;;;;;;;7.20;6.00;;;7.30;95.60;;;;;;4966241;28;20441;-83
2021/04/16 13:44:12;;;;;;;5.80;5.20;;;7.60;96.00;;;;;;4965231;28;20521;-81
2021/04/16 13:46:39;;;;;;;5.20;4.80;;;7.80;95.20;;;;;;4968224;28;20328;-80
2021/04/16 13:49:08;;;;;;;5.43;4.30;;;7.80;94.30;;;;;;4948693;28;20208;-79
2021/04/16 13:51:34;;;;;;;4.60;4.17;;;7.80;93.80;;;;;;4948780;28;20465;-79
2021/04/16 13:54:01;;;;;;;4.43;4.10;;;8.00;93.70;;;;;;4965971;28;20495;-80
2021/04/16 13:56:27;;;;;;;5.13;4.63;;;8.20;93.70;;;;;;4965317;28;20594;-80
2021/04/16 13:58:53;;;;;;;7.03;5.10;;;8.50;93.60;;;;;;4951975;28;20441;-80
2021/04/16 14:01:18;;;;;;;5.57;5.07;;;8.60;93.40;;;;;;4948633;28;20267;-80
2021/04/16 14:03:49;;;;;;;5.00;4.60;;;8.30;93.10;;;;;;4963495;28;20194;-80
2021/04/16 14:06:24;;;;;;;4.93;4.53;;;8.10;93.70;;;;;;4939553;28;20227;-80
2021/04/16 14:08:53;;;;;;;4.40;4.10;;;8.00;93.70;;;;;;4964917;28;20480;-79
2021/04/16 14:11:19;;;;;;;4.93;4.53;;;7.90;93.60;;;;;;4961544;28;20539;-80
2021/04/16 14:13:45;;;;;;;4.73;4.40;;;8.10;93.70;;;;;;4965243;28;20458;-79
2021/04/16 14:16:22;;;;;;;5.00;4.60;;;8.30;94.30;;;;;;4974466;28;20542;-80
2021/04/16 14:18:49;;;;;;;4.17;3.97;;;8.30;93.10;;;;;;4964282;28;20185;-80
2021/04/16 14:21:17;;;;;;;4.30;4.00;;;8.40;92.50;;;;;;4949858;28;20445;-81
2021/04/16 14:23:44;;;;;;;4.03;3.73;;;8.30;92.80;;;;;;4949463;28;20520;-80
2021/04/16 14:26:10;;;;;;;4.47;4.17;;;8.00;93.20;;;;;;4963962;28;20997;-80
2021/04/16 14:28:37;;;;;;;5.10;4.60;;;8.00;93.50;;;;;;4963165;28;20455;-80
2021/04/16 14:31:04;;;;;;;4.40;3.97;;;8.00;92.80;;;;;;4953684;28;20458;-80
2021/04/16 14:33:36;;;;;;;4.50;4.20;;;8.00;93.20;;;;;;4960048;28;20887;-80
2021/04/16 14:36:04;;;;;;;4.47;4.07;;;7.90;92.90;;;;;;4948431;28;20462;-80
2021/04/16 14:38:33;;;;;;;4.33;4.03;;;8.00;93.10;;;;;;4958987;28;20455;-80
2021/04/16 14:41:01;;;;;;;3.93;3.63;;;8.00;92.60;;;;;;4955680;28;20476;-80
2021/04/16 14:43:29;;;;;;;4.57;4.17;;;7.90;92.50;;;;;;4956060;28;20608;-80
2021/04/16 14:45:55;;;;;;;3.90;3.33;;;7.90;91.80;;;;;;4956817;28;20476;-80
2021/04/16 14:48:23;;;;;;;4.60;4.00;;;8.00;92.00;;;;;;4968088;28;20595;-80
2021/04/16 14:50:50;;;;;;;3.70;3.40;;;8.00;92.40;;;;;;4958919;28;20774;-81
2021/04/16 14:53:31;;;;;;;4.70;4.30;;;7.90;92.70;;;;;;4955672;28;21211;-81
2021/04/16 14:56:02;;;;;;;4.40;3.80;;;7.80;92.60;;;;;;4959020;28;20469;-81
2021/04/16 14:58:35;;;;;;;3.73;3.43;;;7.90;93.10;;;;;;4951741;28;20456;-80
2021/04/16 15:01:01;;;;;;;4.00;3.70;;;7.90;92.10;;;;;;4963926;28;21126;-80
2021/04/16 15:03:27;;;;;;;4.20;3.90;;;8.10;92.30;;;;;;4947743;28;20550;-80
2021/04/16 15:05:53;;;;;;;4.50;4.10;;;7.90;92.30;;;;;;4956113;28;21963;-80
2021/04/16 15:08:25;;;;;;;4.80;4.40;;;8.00;92.60;;;;;;4951250;28;20188;-80
2021/04/16 15:11:04;;;;;;;4.03;3.60;;;8.00;92.40;;;;;;4968162;28;20452;-81
2021/04/16 15:13:33;;;;;;;3.60;3.37;;;8.00;92.30;;;;;;4955708;28;20448;-80
2021/04/16 15:16:02;;;;;;;4.27;3.90;;;8.10;92.30;;;;;;4954299;28;20502;-80
2021/04/16 15:18:30;;;;;;;4.23;3.93;;;8.10;91.90;;;;;;4982666;28;20664;-81
2021/04/16 15:20:58;;;;;;;4.50;3.73;;;8.20;92.10;;;;;;4935699;28;21065;-80
2021/04/16 15:23:24;;;;;;;5.80;3.30;;;7.90;91.20;;;;;;4961765;28;20852;-80
2021/04/16 15:25:55;;;;;;;3.63;3.33;;;7.70;91.60;;;;;;4948495;28;20482;-82
2021/04/16 15:28:26;;;;;;;3.90;3.60;;;7.60;91.20;;;;;;4971994;28;20202;-82
2021/04/16 15:31:05;;;;;;;3.67;3.20;;;7.60;91.70;;;;;;4957412;28;20909;-82
2021/04/16 15:47:44;;;;;;;3.70;3.40;;;7.20;92.90;;;;;;4964904;28;20471;-81
2021/04/16 15:50:16;;;;;;;4.30;3.50;;;7.20;93.10;;;;;;4942818;28;21214;-81